createdAt,value
2018-11-11T00:07:59.617Z,99987.03
2018-11-11T00:10:44.277Z,99990.02
2018-11-11T00:13:50.512Z,99926.41
2018-11-11T00:16:40.042Z,99996.12
2018-11-11T00:19:26.055Z,99990.67
2018-11-11T00:22:29.631Z,99984.57
2018-11-11T00:25:00.930Z,99986.91
2018-11-11T00:27:36.203Z,99979.71
2018-11-11T00:30:22.877Z,99975.27
2018-11-11T00:32:54.953Z,99977.42
2018-11-11T00:35:27.545Z,99967.73
2018-11-11T00:37:57.902Z,99970.97
2018-11-11T00:40:29.119Z,99967.16
2018-11-11T00:43:04.757Z,99973.86
2018-11-11T00:45:37.996Z,99966.45
2018-11-11T00:48:08.513Z,99969.28
2018-11-11T00:50:38.255Z,99979.79
2018-11-11T00:53:10.513Z,99980.13
2018-11-11T00:55:46.502Z,99995.25
2018-11-11T01:01:04.821Z,100000.52
2018-11-11T01:03:41.843Z,100007.30
2018-11-11T01:06:20.740Z,100011.43
2018-11-11T01:08:57.586Z,100010.11
2018-11-11T01:11:29.191Z,100007.27
2018-11-11T01:13:59.759Z,100002.03
2018-11-11T01:16:31.519Z,100013.41
2018-11-11T01:19:04.822Z,100018.64
2018-11-11T01:21:35.097Z,100016.02
2018-11-11T01:24:05.796Z,100020.87
2018-11-11T01:26:42.832Z,100020.66
2018-11-11T01:29:12.868Z,100020.11
2018-11-11T01:31:42.719Z,100024.02
2018-11-11T01:34:13.472Z,100017.98
2018-11-11T01:36:43.602Z,100009.44
2018-11-11T01:39:13.160Z,100007.43
2018-11-11T01:41:44.628Z,100005.88
2018-11-11T01:44:14.972Z,100002.20
2018-11-11T01:46:44.798Z,100005.05
2018-11-11T01:49:15.590Z,99991.98
2018-11-11T01:51:45.875Z,99976.75
2018-11-11T01:54:15.976Z,99989.55
2018-11-11T01:56:45.947Z,99998.09
2018-11-11T01:59:16.528Z,99995.21
2018-11-11T02:01:47.715Z,100002.65
2018-11-11T02:04:26.133Z,100001.77
2018-11-11T02:06:56.150Z,99996.05
2018-11-11T02:09:27.583Z,99989.89
2018-11-11T02:11:57.238Z,100001.23
2018-11-11T02:14:26.701Z,100000.38
2018-11-11T02:16:57.554Z,99992.92
2018-11-11T02:19:27.616Z,100003.23
2018-11-11T02:21:57.548Z,99997.70
2018-11-11T02:24:28.410Z,100003.91
2018-11-11T02:27:00.081Z,100002.89
2018-11-11T02:29:29.347Z,100003.43
2018-11-11T02:32:00.140Z,99998.24
2018-11-11T02:34:29.992Z,99992.96
2018-11-11T02:37:00.879Z,99995.20
2018-11-11T02:39:33.967Z,99996.83
2018-11-11T02:42:04.881Z,99994.95
2018-11-11T02:44:35.572Z,99993.66
2018-11-11T02:47:07.847Z,99996.55
2018-11-11T02:49:42.415Z,100002.11
2018-11-11T02:52:11.948Z,99998.38
2018-11-11T02:54:41.781Z,99990.81
2018-11-11T02:57:11.727Z,99991.90
2018-11-11T02:59:42.018Z,99993.45
2018-11-11T03:02:13.310Z,99988.09
2018-11-11T03:04:47.407Z,99992.16
2018-11-11T03:07:18.093Z,99997.47
2018-11-11T03:12:46.304Z,99997.01
2018-11-11T03:15:18.038Z,99998.14
2018-11-11T03:20:23.738Z,99994.03
2018-11-11T03:22:53.374Z,99992.10
2018-11-11T03:25:41.233Z,99983.70
2018-11-11T03:28:10.495Z,99983.70
2018-11-11T03:30:40.672Z,99981.02
2018-11-11T03:33:15.075Z,99988.72
2018-11-11T03:35:45.221Z,99989.47
2018-11-11T03:38:16.213Z,99998.64
2018-11-11T03:40:46.280Z,99995.75
2018-11-11T03:43:18.209Z,99991.48
2018-11-11T03:45:48.309Z,99995.66
2018-11-11T03:48:19.803Z,99987.22
2018-11-11T03:50:49.398Z,99978.96
2018-11-11T03:53:20.541Z,99981.73
2018-11-11T03:55:50.593Z,99981.14
2018-11-11T03:58:31.655Z,99981.73
2018-11-11T04:01:02.300Z,99982.56
2018-11-11T04:03:31.562Z,99984.87
2018-11-11T04:06:00.784Z,99982.02
2018-11-11T04:08:31.005Z,99982.52
2018-11-11T04:11:00.403Z,99983.70
2018-11-11T04:13:30.001Z,99978.55
2018-11-11T04:16:00.512Z,99981.44
2018-11-11T04:18:29.942Z,99986.21
2018-11-11T04:21:00.402Z,100005.41
2018-11-11T04:23:29.760Z,99988.77
2018-11-11T04:25:59.137Z,99981.27
2018-11-11T04:28:29.229Z,99983.27
2018-11-11T04:30:59.400Z,99990.02
2018-11-11T04:33:28.934Z,99996.70
2018-11-11T04:35:58.440Z,99988.88
2018-11-11T04:38:27.984Z,99998.05
2018-11-11T04:40:58.252Z,100003.16
2018-11-11T04:43:28.901Z,100007.88
2018-11-11T04:45:58.546Z,100007.05
2018-11-11T04:48:28.618Z,100005.45
2018-11-11T04:50:58.142Z,99992.78
2018-11-11T04:53:27.750Z,99994.78
2018-11-11T04:55:57.778Z,99997.97
2018-11-11T04:58:29.431Z,100003.98
2018-11-11T05:00:59.316Z,100001.98
2018-11-11T05:03:29.657Z,100001.45
2018-11-11T05:05:59.258Z,100004.49
2018-11-11T05:08:29.441Z,100006.92
2018-11-11T05:11:00.079Z,100004.20
2018-11-11T05:13:29.994Z,100006.42
2018-11-11T05:15:59.627Z,100010.56
2018-11-11T05:18:32.205Z,100009.86
2018-11-11T05:21:02.035Z,100006.47
2018-11-11T05:23:38.330Z,100005.33
2018-11-11T05:26:08.417Z,100007.34
2018-11-11T05:28:43.584Z,100005.88
2018-11-11T05:31:27.397Z,100008.12
2018-11-11T05:33:57.871Z,100007.69
2018-11-11T05:36:28.651Z,99999.67
2018-11-11T05:38:59.555Z,100006.84
2018-11-11T05:41:31.571Z,100002.58
2018-11-11T05:44:01.768Z,100007.01
2018-11-11T05:46:32.772Z,100003.83
2018-11-11T05:49:05.927Z,100005.12
2018-11-11T05:51:35.797Z,100018.65
2018-11-11T05:54:06.401Z,100027.30
2018-11-11T05:56:37.858Z,100019.97
2018-11-11T05:59:12.645Z,100026.72
2018-11-11T06:01:43.239Z,100026.25
2018-11-11T06:07:05.930Z,100027.93
2018-11-11T06:09:42.396Z,100019.09
2018-11-11T06:12:12.451Z,100015.75
2018-11-11T06:14:42.508Z,100014.58
2018-11-11T06:17:12.397Z,100016.42
2018-11-11T06:19:43.450Z,100016.78
2018-11-11T06:22:13.833Z,100010.39
2018-11-11T06:24:44.094Z,100027.27
2018-11-11T06:27:13.603Z,100024.52
2018-11-11T06:29:52.226Z,100030.05
2018-11-11T06:32:21.621Z,100030.55
2018-11-11T06:34:52.614Z,100030.18
2018-11-11T06:37:22.683Z,100035.37
2018-11-11T06:39:53.561Z,100039.22
2018-11-11T06:42:24.318Z,100040.48
2018-11-11T06:45:00.010Z,100045.70
2018-11-11T06:47:29.724Z,100042.30
2018-11-11T06:49:59.786Z,100034.93
2018-11-11T06:52:28.972Z,100035.83
2018-11-11T06:54:59.989Z,100032.70
2018-11-11T06:57:30.097Z,100038.59
2018-11-11T07:00:01.683Z,100052.39
2018-11-11T07:02:38.181Z,100051.47
2018-11-11T07:05:09.341Z,100065.81
2018-11-11T07:07:49.474Z,100080.55
2018-11-11T07:10:22.670Z,100074.75
2018-11-11T07:12:55.348Z,100089.47
2018-11-11T07:15:30.894Z,100089.98
2018-11-11T07:18:02.165Z,100093.66
2018-11-11T07:20:33.468Z,100082.10
2018-11-11T07:23:03.208Z,100099.45
2018-11-11T07:25:38.013Z,100100.72
2018-11-11T07:28:10.290Z,100107.92
2018-11-11T07:30:42.667Z,100110.74
2018-11-11T07:33:14.911Z,100115.34
2018-11-11T07:35:45.294Z,100115.20
2018-11-11T07:38:32.506Z,100110.80
2018-11-11T07:41:11.366Z,100108.20
2018-11-11T07:43:46.152Z,100132.17
2018-11-11T07:46:19.723Z,100136.07
2018-11-11T07:48:49.814Z,100135.70
2018-11-11T07:51:28.604Z,100130.42
2018-11-11T07:53:58.092Z,100126.70
2018-11-11T07:56:28.972Z,100138.66
2018-11-11T07:58:59.922Z,100140.09
2018-11-11T08:01:30.304Z,100143.81
2018-11-11T08:04:01.150Z,100125.08
2018-11-11T08:06:30.804Z,100145.44
2018-11-11T08:09:03.998Z,100145.61
2018-11-11T08:11:47.100Z,100127.32
2018-11-11T08:14:29.500Z,100152.52
2018-11-11T08:17:03.209Z,100130.38
2018-11-11T08:19:34.807Z,100146.83
2018-11-11T08:25:23.027Z,100145.33
2018-11-11T08:28:00.491Z,100158.12
2018-11-11T08:30:52.140Z,100125.03
2018-11-11T08:33:26.248Z,100152.81
2018-11-11T08:35:57.511Z,100163.06
2018-11-11T08:38:28.520Z,100168.02
2018-11-11T08:40:59.930Z,100158.19
2018-11-11T08:43:40.202Z,100159.62
2018-11-11T08:46:14.400Z,100169.00
2018-11-11T08:48:51.728Z,100182.56
2018-11-11T08:51:30.118Z,100190.91
2018-11-11T08:54:07.259Z,100190.94
2018-11-11T08:56:39.767Z,100190.77
2018-11-11T09:02:08.530Z,100195.00
2018-11-11T09:04:38.227Z,100191.19
2018-11-11T09:07:27.702Z,100202.02
2018-11-11T09:09:58.564Z,100197.00
2018-11-11T09:12:33.848Z,100205.44
2018-11-11T09:15:18.775Z,100197.03
2018-11-11T09:17:55.394Z,100202.02
2018-11-11T09:20:27.668Z,100198.66
2018-11-11T09:23:01.560Z,100198.34
2018-11-11T09:28:44.351Z,100191.62
2018-11-11T09:31:20.603Z,100202.64
2018-11-11T09:33:53.003Z,100198.64
2018-11-11T09:36:27.780Z,100202.63
2018-11-11T09:39:01.585Z,100207.16
2018-11-11T09:41:33.460Z,100193.52
2018-11-11T09:44:04.213Z,100200.63
2018-11-11T09:46:41.429Z,100199.92
2018-11-11T09:49:18.178Z,100200.19
2018-11-11T09:51:51.389Z,100218.02
2018-11-11T09:54:21.534Z,100236.42
2018-11-11T09:56:55.221Z,100237.80
2018-11-11T09:59:29.450Z,100237.56
2018-11-11T10:02:10.134Z,100230.63
2018-11-11T10:04:52.871Z,100215.09
2018-11-11T10:07:58.837Z,100237.78
2018-11-11T10:10:41.714Z,100222.82
2018-11-11T10:13:37.760Z,100219.77
2018-11-11T10:18:25.668Z,100217.77
2018-11-11T10:21:12.696Z,100226.26
2018-11-11T10:24:05.055Z,100227.69
2018-11-11T10:26:59.398Z,100229.59
2018-11-11T10:29:47.330Z,100220.23
2018-11-11T10:32:39.788Z,100230.75
2018-11-11T10:35:31.273Z,100232.33
2018-11-11T10:38:23.482Z,100235.44
2018-11-11T10:45:48.657Z,100233.19
2018-11-11T10:48:48.680Z,100260.80
2018-11-11T10:51:43.658Z,100264.50
2018-11-11T11:00:47.915Z,100276.95
2018-11-11T11:04:13.518Z,100285.91
2018-11-11T11:06:56.053Z,100280.78
2018-11-11T11:09:43.693Z,100284.76
2018-11-11T11:12:23.740Z,100275.28
2018-11-11T11:15:27.549Z,100270.03
2018-11-11T11:18:03.466Z,100287.39
2018-11-11T11:20:36.557Z,100303.45
2018-11-11T11:23:09.122Z,100297.80
2018-11-11T11:25:46.765Z,100304.44
2018-11-11T11:28:52.119Z,100304.27
2018-11-11T11:31:29.450Z,100306.72
2018-11-11T11:34:02.511Z,100295.21
2018-11-11T11:36:34.473Z,100314.68
2018-11-11T11:39:05.557Z,100317.70
2018-11-11T11:41:38.732Z,100311.28
2018-11-11T11:44:12.433Z,100307.34
2018-11-11T11:46:50.485Z,100312.25
2018-11-11T11:49:27.802Z,100300.05
2018-11-11T11:52:08.687Z,100295.31
2018-11-11T11:54:51.576Z,100297.41
2018-11-11T12:00:16.347Z,100298.91
2018-11-11T12:02:47.100Z,100298.77
2018-11-11T12:05:23.365Z,100296.23
2018-11-11T12:07:56.779Z,100303.06
2018-11-11T12:10:32.018Z,100288.93
2018-11-11T12:13:05.775Z,100288.37
2018-11-11T12:15:49.869Z,100298.34
2018-11-11T12:18:20.607Z,100302.89
2018-11-11T12:20:50.457Z,100318.23
2018-11-11T12:23:29.614Z,100322.02
2018-11-11T12:26:00.786Z,100314.66
2018-11-11T12:28:38.886Z,100324.02
2018-11-11T12:31:13.524Z,100315.03
2018-11-11T12:33:51.848Z,100309.58
2018-11-11T12:36:36.177Z,100276.45
2018-11-11T12:39:21.752Z,100303.78
2018-11-11T12:44:41.957Z,100311.09
2018-11-11T12:47:18.921Z,100318.23
2018-11-11T12:49:50.952Z,100319.05
2018-11-11T12:52:24.054Z,100304.91
2018-11-11T12:54:53.937Z,100315.52
2018-11-11T12:57:26.596Z,100319.75
2018-11-11T13:02:48.582Z,100328.71
2018-11-11T13:05:20.102Z,100322.80
2018-11-11T13:07:54.587Z,100324.72
2018-11-11T13:10:26.986Z,100331.16
2018-11-11T13:13:05.338Z,100326.59
2018-11-11T13:18:21.522Z,100332.66
2018-11-11T13:21:03.426Z,100342.88
2018-11-11T13:23:53.823Z,100341.45
2018-11-11T13:26:34.360Z,100332.50
2018-11-11T13:29:20.339Z,100341.52
2018-11-11T13:32:01.164Z,100344.16
2018-11-11T13:34:37.336Z,100353.05
2018-11-11T13:37:11.470Z,100350.41
2018-11-11T13:39:47.456Z,100356.41
2018-11-11T13:48:00.337Z,100369.44
2018-11-11T13:50:35.593Z,100382.33
2018-11-11T13:53:09.918Z,100384.31
2018-11-11T13:55:45.795Z,100372.51
2018-11-11T13:58:25.907Z,100373.38
2018-11-11T14:03:51.091Z,100362.55
2018-11-11T14:06:23.298Z,100368.23
2018-11-11T14:09:10.951Z,100359.38
2018-11-11T14:11:59.118Z,100371.61
2018-11-11T14:14:45.909Z,100376.29
2018-11-11T14:17:24.592Z,100383.84
2018-11-11T14:19:57.625Z,100372.27
2018-11-11T14:22:28.351Z,100385.33
2018-11-11T14:24:59.890Z,100392.03
2018-11-11T14:27:31.741Z,100398.59
2018-11-11T14:32:51.690Z,100390.22
2018-11-11T14:35:21.928Z,100401.92
2018-11-11T14:37:51.497Z,100411.80
2018-11-11T14:40:22.476Z,100411.47
2018-11-11T14:42:53.372Z,100407.44
2018-11-11T14:45:24.365Z,100411.95
2018-11-11T14:47:58.846Z,100407.96
2018-11-11T14:50:35.678Z,100405.95
2018-11-11T14:53:11.237Z,100383.52
2018-11-11T14:55:43.040Z,100380.67
2018-11-11T14:58:13.776Z,100385.52
2018-11-11T15:00:48.323Z,100375.98
2018-11-11T15:03:34.619Z,100375.63
2018-11-11T15:06:07.333Z,100388.20
2018-11-11T15:08:54.651Z,100383.37
2018-11-11T15:14:11.100Z,100394.56
2018-11-11T15:16:50.813Z,100393.88
2018-11-11T15:31:57.324Z,100389.51
2018-11-11T15:43:26.387Z,100408.46
2018-11-11T15:45:56.832Z,100412.95
2018-11-11T15:48:34.505Z,100426.50
2018-11-11T15:51:06.749Z,100424.19
2018-11-11T15:53:38.483Z,100426.16
2018-11-11T15:56:21.334Z,100431.20
2018-11-11T15:58:57.480Z,100434.86
2018-11-11T16:01:42.617Z,100427.17
2018-11-11T16:04:15.617Z,100420.27
2018-11-11T16:07:06.878Z,100425.84
2018-11-11T16:09:40.422Z,100419.81
2018-11-11T16:12:20.195Z,100422.64
2018-11-11T16:14:55.194Z,100420.97
2018-11-11T16:17:29.523Z,100420.64
2018-11-11T16:20:19.790Z,100420.13
2018-11-11T16:23:12.643Z,100429.53
2018-11-11T16:25:45.832Z,100425.69
2018-11-11T16:28:19.409Z,100425.53
2018-11-11T16:30:57.392Z,100420.00
2018-11-11T16:33:37.165Z,100422.02
2018-11-11T16:36:11.818Z,100408.94
2018-11-11T16:38:57.217Z,100423.19
2018-11-11T16:41:42.841Z,100419.97
2018-11-11T16:47:03.629Z,100425.20
2018-11-11T16:49:36.136Z,100416.66
2018-11-11T16:55:20.112Z,100429.69
2018-11-11T16:58:01.631Z,100430.02
2018-11-11T17:00:51.800Z,100432.72
2018-11-11T17:03:27.874Z,100445.61
2018-11-11T17:06:17.740Z,100458.66
2018-11-11T17:08:58.481Z,100444.08
2018-11-11T17:11:39.579Z,100458.67
2018-11-11T17:14:13.176Z,100449.27
2018-11-11T17:16:45.381Z,100449.89
2018-11-11T17:19:16.424Z,100451.42
2018-11-11T17:22:03.636Z,100452.78
2018-11-11T17:24:34.540Z,100447.23
2018-11-11T17:27:07.885Z,100448.06
2018-11-11T17:29:42.094Z,100449.41
2018-11-11T17:32:13.433Z,100459.78
2018-11-11T17:35:06.833Z,100461.63
2018-11-11T17:37:46.681Z,100470.84
2018-11-11T17:40:29.088Z,100478.55
2018-11-11T17:43:03.474Z,100480.23
2018-11-11T17:48:10.461Z,100489.64
2018-11-11T17:50:44.558Z,100490.64
2018-11-11T17:56:49.099Z,100492.61
2018-11-11T18:02:57.626Z,100491.09
2018-11-11T18:05:41.861Z,100480.84
2018-11-11T18:08:12.537Z,100481.37
2018-11-11T18:10:53.360Z,100466.81
2018-11-11T18:13:24.858Z,100467.64
2018-11-11T18:22:09.203Z,100458.07
2018-11-11T18:24:41.752Z,100453.89
2018-11-11T18:27:13.519Z,100461.62
2018-11-11T18:30:08.758Z,100463.16
2018-11-11T18:32:45.593Z,100457.23
2018-11-11T18:35:37.224Z,100461.27
2018-11-11T18:38:13.659Z,100478.03
2018-11-11T18:40:49.256Z,100482.27
2018-11-11T18:43:34.263Z,100501.48
2018-11-11T18:49:11.727Z,100528.63
2018-11-11T18:52:19.847Z,100535.36
2018-11-11T18:54:54.064Z,100554.80
2018-11-11T18:57:26.388Z,100575.08
2018-11-11T19:00:09.248Z,100579.61
2018-11-11T19:02:47.905Z,100586.49
2018-11-11T19:05:25.832Z,100585.98
2018-11-11T19:10:34.494Z,100590.69
2018-11-11T19:13:10.623Z,100599.58
2018-11-11T19:15:59.934Z,100591.52
2018-11-11T19:18:43.357Z,100585.66
2018-11-11T19:21:18.548Z,100578.45
2018-11-11T19:23:50.061Z,100588.68
2018-11-11T19:26:37.574Z,100596.73
2018-11-11T19:29:32.479Z,100594.05
2018-11-11T19:32:24.965Z,100611.14
2018-11-11T19:35:01.953Z,100616.34
2018-11-11T19:40:55.102Z,100621.59
2018-11-11T19:43:38.230Z,100619.28
2018-11-11T19:46:24.602Z,100615.58
2018-11-11T19:52:15.969Z,100625.54
2018-11-11T19:54:50.636Z,100620.52
2018-11-11T19:57:35.764Z,100613.77
2018-11-11T20:00:25.721Z,100605.73
2018-11-11T20:03:01.806Z,100621.47
2018-11-11T20:05:50.714Z,100619.44
2018-11-11T20:08:26.421Z,100606.23
2018-11-11T20:11:10.657Z,100606.02
2018-11-11T20:13:46.049Z,100639.14
2018-11-11T20:16:21.380Z,100660.43
2018-11-11T20:18:54.496Z,100686.71
2018-11-11T20:21:28.421Z,100682.70
2018-11-11T20:24:02.761Z,100677.63
2018-11-11T20:26:33.658Z,100681.66
2018-11-11T20:29:11.285Z,100662.71
2018-11-11T20:34:48.455Z,100700.95
2018-11-11T20:37:27.029Z,100694.22
2018-11-11T20:40:06.452Z,100714.14
2018-11-11T20:42:45.450Z,100712.58
2018-11-11T20:45:36.545Z,100706.62
2018-11-11T20:48:22.542Z,100708.45
2018-11-11T20:51:04.367Z,100710.63
2018-11-11T20:53:41.014Z,100697.17
2018-11-11T20:56:11.557Z,100705.77
2018-11-11T20:58:42.384Z,100705.62
2018-11-11T21:01:20.481Z,100707.26
2018-11-11T21:03:52.373Z,100707.25
2018-11-11T21:06:27.656Z,100703.21
2018-11-11T21:09:08.870Z,100715.48
2018-11-11T21:11:51.750Z,100718.33
2018-11-11T21:14:34.385Z,100727.26
2018-11-11T21:17:14.507Z,100714.42
2018-11-11T21:19:47.866Z,100707.21
2018-11-11T21:22:35.622Z,100717.31
2018-11-11T21:27:48.963Z,100722.34
2018-11-11T21:30:27.698Z,100713.58
2018-11-11T21:33:05.085Z,100722.69
2018-11-11T21:35:36.841Z,100716.47
2018-11-11T21:38:15.160Z,100715.41
2018-11-11T21:40:45.743Z,100724.98
2018-11-11T21:43:16.412Z,100727.18
2018-11-11T21:45:46.856Z,100736.81
2018-11-11T21:48:16.821Z,100756.38
2018-11-11T21:50:54.980Z,100761.80
2018-11-11T21:53:37.767Z,100750.77
2018-11-11T21:56:17.692Z,100752.16
2018-11-11T22:01:33.747Z,100770.02
2018-11-11T22:04:09.442Z,100771.23
2018-11-11T22:06:43.525Z,100757.08
2018-11-11T22:09:20.785Z,100753.34
2018-11-11T22:11:55.547Z,100759.53
2018-11-11T22:14:29.025Z,100761.14
2018-11-11T22:17:04.901Z,100759.52
2018-11-11T22:19:43.289Z,100757.56
2018-11-11T22:22:16.990Z,100774.00
2018-11-11T22:24:47.109Z,100785.66
2018-11-11T22:27:18.791Z,100787.20
2018-11-11T22:32:28.292Z,100798.56
2018-11-11T22:34:58.440Z,100804.09
2018-11-11T22:37:28.977Z,100810.93
2018-11-11T22:40:08.764Z,100818.20
2018-11-11T22:42:41.878Z,100811.56
2018-11-11T22:45:15.075Z,100820.19
2018-11-11T22:47:49.703Z,100824.19
2018-11-11T22:50:20.440Z,100820.22
2018-11-11T22:52:49.757Z,100828.53
2018-11-11T22:55:24.265Z,100829.25
2018-11-11T22:57:59.625Z,100823.78
2018-11-11T23:00:38.154Z,100818.04
2018-11-11T23:03:10.145Z,100808.37
2018-11-11T23:05:45.357Z,100812.19
2018-11-11T23:08:28.473Z,100810.00
2018-11-11T23:11:01.382Z,100810.44
2018-11-11T23:13:46.495Z,100817.38
2018-11-11T23:16:21.523Z,100826.57
2018-11-11T23:18:55.546Z,100824.97
2018-11-11T23:24:46.008Z,100825.68
2018-11-11T23:27:21.598Z,100792.14
2018-11-11T23:29:52.584Z,100834.55
2018-11-11T23:32:25.153Z,100836.94
2018-11-11T23:34:58.194Z,100837.86
2018-11-11T23:37:28.471Z,100832.86
2018-11-11T23:42:50.452Z,100815.84
2018-11-11T23:45:29.384Z,100812.13
2018-11-11T23:48:00.878Z,100811.56
2018-11-11T23:50:33.001Z,100819.89
2018-11-11T23:53:04.450Z,100820.05
2018-11-11T23:55:35.478Z,100809.60
2018-11-11T23:58:05.829Z,100814.11
